createdAt,value
2017-12-31T00:02:58.770Z,97.80
2017-12-31T00:06:03.622Z,97.80
2017-12-31T00:09:10.051Z,98.00
2017-12-31T00:12:16.672Z,97.80
2017-12-31T00:15:22.978Z,97.90
2017-12-31T00:18:27.858Z,97.80
2017-12-31T00:21:33.438Z,98.00
2017-12-31T00:24:39.826Z,98.10
2017-12-31T00:27:45.271Z,98.00
2017-12-31T00:30:50.422Z,97.80
2017-12-31T00:33:55.661Z,97.60
2017-12-31T00:37:01.876Z,98.10
2017-12-31T00:40:07.982Z,98.50
2017-12-31T00:43:13.116Z,98.50
2017-12-31T00:46:18.205Z,98.40
2017-12-31T00:49:23.136Z,98.80
2017-12-31T00:52:29.062Z,98.80
2017-12-31T00:55:35.501Z,99.10
2017-12-31T00:58:40.739Z,99.10
2017-12-31T01:01:46.336Z,99.30
2017-12-31T01:04:51.794Z,99.00
2017-12-31T01:07:56.677Z,99.30
2017-12-31T01:11:01.971Z,99.30
2017-12-31T01:14:07.716Z,98.40
2017-12-31T01:17:13.752Z,98.30
2017-12-31T01:20:19.806Z,99.00
2017-12-31T01:23:26.004Z,98.60
2017-12-31T01:26:32.030Z,98.90
2017-12-31T01:29:37.665Z,98.90
2017-12-31T01:32:43.670Z,98.80
2017-12-31T01:35:48.556Z,98.80
2017-12-31T01:38:54.222Z,98.50
2017-12-31T01:41:59.417Z,98.00
2017-12-31T01:45:04.294Z,97.80
2017-12-31T01:48:09.943Z,97.20
2017-12-31T01:51:14.991Z,96.70
2017-12-31T01:54:19.758Z,96.50
2017-12-31T01:57:24.666Z,95.80
2017-12-31T02:00:30.602Z,95.50
2017-12-31T02:03:35.938Z,95.50
2017-12-31T02:06:41.279Z,95.60
2017-12-31T02:09:47.411Z,95.30
2017-12-31T02:12:53.018Z,95.30
2017-12-31T02:15:58.688Z,95.30
2017-12-31T02:19:03.754Z,95.40
2017-12-31T02:22:08.637Z,95.40
2017-12-31T02:25:14.103Z,95.50
2017-12-31T02:28:19.841Z,95.70
2017-12-31T02:31:25.534Z,96.10
2017-12-31T02:34:31.527Z,96.50
2017-12-31T02:37:36.578Z,96.50
2017-12-31T02:40:42.076Z,96.60
2017-12-31T02:43:47.893Z,96.80
2017-12-31T02:46:53.258Z,96.70
2017-12-31T02:49:59.196Z,96.30
2017-12-31T02:53:04.763Z,96.30
2017-12-31T02:56:10.620Z,96.80
2017-12-31T02:59:16.503Z,97.10
2017-12-31T03:02:21.488Z,97.10
2017-12-31T03:05:27.393Z,97.40
2017-12-31T03:08:32.243Z,97.30
2017-12-31T03:11:37.061Z,97.50
2017-12-31T03:14:42.216Z,97.70
2017-12-31T03:17:47.899Z,98.50
2017-12-31T03:20:53.226Z,98.10
2017-12-31T03:23:59.413Z,97.90
2017-12-31T03:27:04.634Z,97.90
2017-12-31T03:30:10.304Z,97.90
2017-12-31T03:33:15.246Z,97.90
2017-12-31T03:36:20.446Z,97.80
2017-12-31T03:39:26.717Z,97.80
2017-12-31T03:42:31.830Z,97.80
2017-12-31T03:45:37.187Z,97.60
2017-12-31T03:48:42.604Z,97.40
2017-12-31T03:51:48.242Z,97.50
2017-12-31T03:54:53.843Z,97.40
2017-12-31T03:57:59.412Z,97.00
2017-12-31T04:01:04.417Z,96.80
2017-12-31T04:04:09.955Z,96.60
2017-12-31T04:07:16.134Z,96.10
2017-12-31T04:10:21.811Z,96.10
2017-12-31T04:13:27.920Z,95.60
2017-12-31T04:16:34.144Z,95.20
2017-12-31T04:19:39.753Z,95.20
2017-12-31T04:22:44.718Z,94.80
2017-12-31T04:25:49.659Z,94.80
2017-12-31T04:28:55.218Z,94.40
2017-12-31T04:32:01.518Z,94.90
2017-12-31T04:35:06.950Z,94.90
2017-12-31T04:38:12.428Z,94.50
2017-12-31T04:41:17.317Z,94.50
2017-12-31T04:44:22.947Z,94.60
2017-12-31T04:47:28.326Z,94.60
2017-12-31T04:50:33.970Z,94.30
2017-12-31T04:53:40.230Z,94.20
2017-12-31T04:56:45.244Z,94.20
2017-12-31T04:59:50.909Z,93.60
2017-12-31T05:02:56.495Z,93.50
2017-12-31T05:06:02.627Z,92.90
2017-12-31T05:09:07.838Z,92.70
2017-12-31T05:12:14.850Z,92.90
2017-12-31T05:15:20.460Z,92.80
2017-12-31T05:18:25.342Z,93.30
2017-12-31T05:21:30.493Z,92.70
2017-12-31T05:24:36.099Z,92.70
2017-12-31T05:27:41.563Z,92.30
2017-12-31T05:30:46.665Z,92.40
2017-12-31T05:33:52.430Z,92.60
2017-12-31T05:36:57.943Z,92.60
2017-12-31T05:40:03.225Z,92.60
2017-12-31T05:43:08.602Z,92.30
2017-12-31T05:46:14.218Z,92.50
2017-12-31T05:49:19.730Z,92.40
2017-12-31T05:52:25.996Z,92.10
2017-12-31T05:55:31.665Z,92.10
2017-12-31T05:58:36.786Z,92.30
2017-12-31T06:01:42.078Z,92.00
2017-12-31T06:04:46.830Z,91.90
2017-12-31T06:07:52.228Z,91.90
2017-12-31T06:10:58.314Z,91.90
2017-12-31T06:14:03.403Z,91.90
2017-12-31T06:17:08.286Z,92.20
2017-12-31T06:20:13.591Z,91.70
2017-12-31T06:23:19.861Z,92.00
2017-12-31T06:26:25.703Z,92.10
2017-12-31T06:29:31.045Z,92.10
2017-12-31T06:32:37.437Z,92.20
2017-12-31T06:35:42.165Z,92.30
2017-12-31T06:38:48.046Z,91.90
2017-12-31T06:41:53.526Z,91.90
2017-12-31T06:44:59.242Z,92.00
2017-12-31T06:48:04.152Z,92.00
2017-12-31T06:51:09.542Z,92.20
2017-12-31T06:54:14.935Z,92.20
2017-12-31T06:57:21.227Z,92.10
2017-12-31T07:00:29.604Z,92.10
2017-12-31T07:03:34.826Z,92.20
2017-12-31T07:06:40.559Z,92.50
2017-12-31T07:09:45.441Z,92.50
2017-12-31T07:12:51.306Z,92.60
2017-12-31T07:15:56.795Z,92.60
2017-12-31T07:19:02.794Z,92.60
2017-12-31T07:22:07.652Z,92.60
2017-12-31T07:25:13.360Z,92.50
2017-12-31T07:28:18.486Z,92.50
2017-12-31T07:31:23.466Z,92.20
2017-12-31T07:34:28.911Z,92.00
2017-12-31T07:37:35.180Z,91.90
2017-12-31T07:40:40.000Z,91.90
2017-12-31T07:43:47.720Z,91.60
2017-12-31T07:46:52.675Z,91.60
2017-12-31T07:49:57.945Z,91.40
2017-12-31T07:53:03.794Z,91.50
2017-12-31T07:56:09.233Z,91.40
2017-12-31T07:59:14.666Z,91.30
2017-12-31T08:02:19.505Z,91.00
2017-12-31T08:05:25.022Z,91.10
2017-12-31T08:08:30.082Z,90.80
2017-12-31T08:11:34.909Z,90.60
2017-12-31T08:14:40.518Z,90.40
2017-12-31T08:17:46.541Z,90.20
2017-12-31T08:20:52.488Z,90.00
2017-12-31T08:23:57.594Z,89.90
2017-12-31T08:27:02.767Z,89.30
2017-12-31T08:30:10.354Z,89.20
2017-12-31T08:33:16.783Z,89.50
2017-12-31T08:36:21.602Z,89.50
2017-12-31T08:39:26.704Z,89.60
2017-12-31T08:42:32.023Z,88.90
2017-12-31T08:45:38.646Z,89.80
2017-12-31T08:48:44.661Z,90.00
2017-12-31T08:51:49.805Z,90.00
2017-12-31T08:54:55.567Z,89.50
2017-12-31T08:58:01.222Z,89.00
2017-12-31T09:01:07.070Z,89.00
2017-12-31T09:04:12.164Z,88.90
2017-12-31T09:07:17.410Z,89.90
2017-12-31T09:10:22.983Z,88.80
2017-12-31T09:13:27.903Z,88.20
2017-12-31T09:16:33.815Z,87.60
2017-12-31T09:19:40.510Z,87.50
2017-12-31T09:22:45.667Z,87.40
2017-12-31T09:25:51.333Z,87.20
2017-12-31T09:28:58.216Z,87.20
2017-12-31T09:32:04.314Z,86.30
2017-12-31T09:35:09.247Z,86.20
2017-12-31T09:38:14.683Z,86.90
2017-12-31T09:41:19.648Z,86.80
2017-12-31T09:44:25.379Z,86.40
2017-12-31T09:47:30.486Z,86.40
2017-12-31T09:50:35.452Z,85.70
2017-12-31T09:53:41.330Z,85.30
2017-12-31T09:56:46.957Z,85.30
2017-12-31T09:59:54.322Z,85.30
2017-12-31T10:03:02.446Z,84.90
2017-12-31T10:06:08.586Z,85.00
2017-12-31T10:09:13.482Z,85.00
2017-12-31T10:12:18.849Z,85.80
2017-12-31T10:15:24.354Z,85.50
2017-12-31T10:18:29.822Z,84.90
2017-12-31T10:21:34.834Z,85.10
2017-12-31T10:24:39.610Z,85.60
2017-12-31T10:27:45.540Z,85.10
2017-12-31T10:30:51.734Z,84.50
2017-12-31T10:33:58.023Z,84.40
2017-12-31T10:37:03.202Z,84.80
2017-12-31T10:40:08.555Z,82.50
2017-12-31T10:43:15.026Z,83.50
2017-12-31T10:46:20.774Z,83.40
2017-12-31T10:49:26.377Z,81.80
2017-12-31T10:52:31.103Z,81.60
2017-12-31T10:55:36.566Z,82.40
2017-12-31T10:58:41.638Z,82.40
2017-12-31T11:01:46.807Z,82.70
2017-12-31T11:04:51.894Z,83.50
2017-12-31T11:07:58.090Z,84.50
2017-12-31T11:11:04.462Z,85.20
2017-12-31T11:14:10.002Z,84.50
2017-12-31T11:17:14.950Z,84.40
2017-12-31T11:20:21.013Z,84.20
2017-12-31T11:23:26.434Z,83.90
2017-12-31T11:26:32.791Z,84.90
2017-12-31T11:29:38.051Z,84.80
2017-12-31T11:32:43.216Z,85.10
2017-12-31T11:35:48.318Z,85.30
2017-12-31T11:38:53.725Z,85.00
2017-12-31T11:41:59.004Z,84.70
2017-12-31T11:45:04.550Z,85.20
2017-12-31T11:48:10.085Z,84.50
2017-12-31T11:51:15.987Z,85.10
2017-12-31T11:54:20.765Z,85.10
2017-12-31T11:57:26.585Z,84.80
2017-12-31T12:00:31.858Z,84.60
2017-12-31T12:03:38.092Z,84.10
2017-12-31T12:06:43.479Z,84.10
2017-12-31T12:09:49.890Z,84.50
2017-12-31T12:12:54.530Z,84.50
2017-12-31T12:16:08.239Z,84.10
2017-12-31T12:19:14.246Z,84.40
2017-12-31T12:22:20.555Z,83.50
2017-12-31T12:25:25.608Z,83.40
2017-12-31T12:28:30.675Z,84.10
2017-12-31T12:31:35.983Z,83.50
2017-12-31T12:34:42.194Z,82.90
2017-12-31T12:37:47.619Z,82.90
2017-12-31T12:40:52.571Z,82.20
2017-12-31T12:43:58.245Z,83.20
2017-12-31T12:47:03.061Z,83.20
2017-12-31T12:50:08.307Z,83.80
2017-12-31T12:53:14.183Z,82.90
2017-12-31T12:56:19.125Z,82.90
2017-12-31T12:59:25.675Z,83.20
2017-12-31T13:02:32.138Z,83.50
2017-12-31T13:05:38.436Z,83.80
2017-12-31T13:08:43.945Z,83.70
2017-12-31T13:11:48.846Z,83.80
2017-12-31T13:14:54.067Z,84.10
2017-12-31T13:17:59.208Z,84.00
2017-12-31T13:21:04.892Z,83.90
2017-12-31T13:24:13.017Z,82.80
2017-12-31T13:27:18.074Z,82.70
2017-12-31T13:30:23.782Z,82.50
2017-12-31T13:33:29.205Z,81.80
2017-12-31T13:36:35.091Z,81.20
2017-12-31T13:39:40.186Z,81.20
2017-12-31T13:42:44.974Z,82.00
2017-12-31T13:45:51.120Z,80.90
2017-12-31T13:48:55.919Z,80.70
2017-12-31T13:52:02.302Z,80.40
2017-12-31T13:55:08.061Z,80.30
2017-12-31T13:58:13.334Z,80.50
2017-12-31T14:01:18.735Z,79.60
2017-12-31T14:04:24.255Z,80.10
2017-12-31T14:07:29.830Z,80.30
2017-12-31T14:10:35.026Z,79.90
2017-12-31T14:13:40.437Z,80.10
2017-12-31T14:16:45.283Z,80.40
2017-12-31T14:19:50.988Z,80.50
2017-12-31T14:22:56.302Z,81.10
2017-12-31T14:26:02.300Z,80.90
2017-12-31T14:29:07.182Z,81.60
2017-12-31T14:32:12.067Z,81.80
2017-12-31T14:35:19.532Z,81.20
2017-12-31T14:38:25.130Z,81.50
2017-12-31T14:41:30.186Z,81.50
2017-12-31T14:44:35.866Z,81.50
2017-12-31T14:47:42.736Z,80.90
2017-12-31T14:50:48.039Z,81.20
2017-12-31T14:53:53.815Z,81.70
2017-12-31T14:56:59.451Z,82.10
2017-12-31T15:00:04.743Z,82.80
2017-12-31T15:03:10.307Z,82.90
2017-12-31T15:06:16.101Z,82.90
2017-12-31T15:09:20.942Z,82.70
2017-12-31T15:12:27.268Z,82.70
2017-12-31T15:15:32.458Z,82.70
2017-12-31T15:18:37.594Z,81.80
2017-12-31T15:21:43.826Z,82.10
2017-12-31T15:24:50.341Z,82.10
2017-12-31T15:27:55.134Z,82.20
2017-12-31T15:31:00.207Z,82.20
2017-12-31T15:34:06.714Z,81.70
2017-12-31T15:37:12.754Z,82.50
2017-12-31T15:40:17.687Z,82.40
2017-12-31T15:43:24.016Z,82.10
2017-12-31T15:46:29.804Z,82.00
2017-12-31T15:49:35.254Z,81.70
2017-12-31T15:52:40.746Z,81.70
2017-12-31T15:55:46.826Z,82.20
2017-12-31T15:58:52.722Z,82.00
2017-12-31T16:01:58.174Z,82.40
2017-12-31T16:05:03.626Z,82.10
2017-12-31T16:08:09.101Z,82.30
2017-12-31T16:11:14.813Z,82.30
2017-12-31T16:14:20.457Z,82.70
2017-12-31T16:17:25.802Z,82.70
2017-12-31T16:20:30.798Z,82.60
2017-12-31T16:23:37.834Z,82.30
2017-12-31T16:26:43.178Z,82.50
2017-12-31T16:29:49.015Z,82.80
2017-12-31T16:32:53.915Z,82.70
2017-12-31T16:36:00.315Z,83.10
2017-12-31T16:39:05.164Z,83.10
2017-12-31T16:42:10.590Z,83.90
2017-12-31T16:45:16.258Z,84.10
2017-12-31T16:48:21.217Z,84.30
2017-12-31T16:51:26.842Z,84.40
2017-12-31T16:54:31.853Z,84.40
2017-12-31T16:57:37.542Z,84.40
2017-12-31T17:00:42.826Z,85.20
2017-12-31T17:03:48.014Z,85.10
2017-12-31T17:06:53.110Z,85.60
2017-12-31T17:09:57.897Z,85.80
2017-12-31T17:13:03.880Z,85.10
2017-12-31T17:16:09.853Z,85.50
2017-12-31T17:19:15.650Z,85.40
2017-12-31T17:22:21.318Z,85.40
2017-12-31T17:25:26.583Z,85.50
2017-12-31T17:28:32.538Z,85.10
2017-12-31T17:31:38.479Z,85.20
2017-12-31T17:34:44.214Z,85.10
2017-12-31T17:37:49.098Z,85.50
2017-12-31T17:40:53.738Z,85.90
2017-12-31T17:43:59.513Z,85.80
2017-12-31T17:47:05.034Z,85.40
2017-12-31T17:50:10.857Z,85.40
2017-12-31T17:53:16.215Z,85.20
2017-12-31T17:56:22.128Z,86.10
2017-12-31T17:59:27.582Z,85.30
2017-12-31T18:02:33.529Z,85.50
2017-12-31T18:05:39.997Z,85.80
2017-12-31T18:08:45.777Z,85.10
2017-12-31T18:11:51.214Z,85.20
2017-12-31T18:14:56.721Z,85.00
2017-12-31T18:18:03.093Z,85.30
2017-12-31T18:21:08.321Z,85.30
2017-12-31T18:24:13.886Z,85.90
2017-12-31T18:27:19.517Z,85.90
2017-12-31T18:30:24.985Z,86.30
2017-12-31T18:33:30.043Z,86.10
2017-12-31T18:36:36.617Z,86.70
2017-12-31T18:39:42.701Z,86.60
2017-12-31T18:42:47.569Z,86.60
2017-12-31T18:45:52.565Z,86.70
2017-12-31T18:48:57.702Z,86.50
2017-12-31T18:52:02.901Z,85.90
2017-12-31T18:55:08.677Z,86.00
2017-12-31T18:58:13.642Z,86.00
2017-12-31T19:01:19.282Z,86.10
2017-12-31T19:04:25.362Z,85.90
2017-12-31T19:07:30.842Z,86.20
2017-12-31T19:10:36.781Z,86.40
2017-12-31T19:13:41.658Z,86.50
2017-12-31T19:16:46.551Z,85.90
2017-12-31T19:19:52.274Z,85.20
2017-12-31T19:22:58.415Z,86.20
2017-12-31T19:26:04.945Z,85.80
2017-12-31T19:29:11.185Z,85.70
2017-12-31T19:32:16.052Z,85.60
2017-12-31T19:35:21.001Z,85.80
2017-12-31T19:38:26.633Z,86.30
2017-12-31T19:41:32.277Z,86.80
2017-12-31T19:44:37.277Z,86.80
2017-12-31T19:47:42.297Z,86.90
2017-12-31T19:50:47.518Z,86.60
2017-12-31T19:53:52.398Z,87.20
2017-12-31T19:56:57.812Z,86.60
2017-12-31T20:00:03.628Z,86.00
2017-12-31T20:03:08.829Z,86.00
2017-12-31T20:06:15.039Z,86.10
2017-12-31T20:09:19.945Z,86.10
2017-12-31T20:12:25.649Z,86.30
2017-12-31T20:15:30.948Z,86.30
2017-12-31T20:18:36.261Z,86.60
2017-12-31T20:21:42.564Z,85.90
2017-12-31T20:24:48.949Z,85.90
2017-12-31T20:27:54.090Z,85.80
2017-12-31T20:30:59.801Z,85.90
2017-12-31T20:34:04.901Z,85.90
2017-12-31T20:37:11.405Z,84.80
2017-12-31T20:40:17.073Z,84.70
2017-12-31T20:43:23.543Z,84.50
2017-12-31T20:46:28.895Z,84.50
2017-12-31T20:49:34.133Z,84.00
2017-12-31T20:52:39.125Z,84.80
2017-12-31T20:55:44.289Z,83.90
2017-12-31T20:58:49.629Z,83.50
2017-12-31T21:01:54.733Z,83.80
2017-12-31T21:04:59.625Z,83.60
2017-12-31T21:08:05.182Z,83.30
2017-12-31T21:11:10.877Z,83.10
2017-12-31T21:14:16.016Z,82.70
2017-12-31T21:17:21.062Z,82.40
2017-12-31T21:20:26.274Z,82.20
2017-12-31T21:23:32.002Z,82.70
2017-12-31T21:26:36.911Z,81.50
2017-12-31T21:29:41.904Z,81.20
2017-12-31T21:32:47.290Z,80.70
2017-12-31T21:35:52.249Z,80.50
2017-12-31T21:38:57.634Z,80.50
2017-12-31T21:42:02.929Z,80.30
2017-12-31T21:45:08.532Z,80.40
2017-12-31T21:48:14.270Z,80.10
2017-12-31T21:51:19.354Z,80.00
2017-12-31T21:54:24.717Z,79.90
2017-12-31T21:57:29.949Z,80.20
2017-12-31T22:00:35.842Z,80.80
2017-12-31T22:03:40.883Z,80.80
2017-12-31T22:06:45.882Z,80.60
2017-12-31T22:09:51.410Z,80.30
2017-12-31T22:12:56.846Z,80.90
2017-12-31T22:16:01.890Z,81.20
2017-12-31T22:19:07.645Z,81.30
2017-12-31T22:22:13.687Z,82.80
2017-12-31T22:25:18.326Z,82.80
2017-12-31T22:28:23.565Z,82.80
2017-12-31T22:31:28.393Z,83.10
2017-12-31T22:34:34.008Z,83.50
2017-12-31T22:37:39.751Z,82.90
2017-12-31T22:40:44.513Z,82.90
2017-12-31T22:43:49.423Z,80.00
2017-12-31T22:46:54.590Z,80.50
2017-12-31T22:49:59.642Z,81.20
2017-12-31T22:53:04.668Z,81.10
2017-12-31T22:56:11.052Z,82.50
2017-12-31T22:59:17.263Z,83.30
2017-12-31T23:02:22.366Z,83.30
2017-12-31T23:05:27.911Z,84.40
2017-12-31T23:08:34.482Z,86.80
2017-12-31T23:11:39.761Z,86.80
2017-12-31T23:14:45.281Z,86.60
2017-12-31T23:17:51.561Z,86.50
2017-12-31T23:20:57.185Z,86.50
2017-12-31T23:24:02.258Z,86.80
2017-12-31T23:27:07.613Z,87.70
2017-12-31T23:30:12.865Z,88.50
2017-12-31T23:33:18.271Z,89.30
2017-12-31T23:36:23.885Z,90.20
2017-12-31T23:39:28.885Z,90.10
2017-12-31T23:42:33.708Z,90.70
2017-12-31T23:45:39.965Z,91.00
2017-12-31T23:48:46.177Z,91.40
2017-12-31T23:51:52.081Z,91.30
2017-12-31T23:54:57.447Z,91.30
2017-12-31T23:58:02.370Z,91.20
